Terminal Aerodrome Forecast
Issued by NWS Huntsville, AL

Home | Current Version | Previous Version | Text Only | Print | Product List | Glossary On
Versions: 1 2 3 4 5 6 7 8 9 10 11 12 13 14 15 16 17 18 19 20 21 22 23 24
000
FTUS44 KHUN 220536
TAFMSL
TAF
KMSL 220536Z 2206/2306 VRB03KT P6SM SCT250
     FM220700 36005KT P6SM BKN250
     FM221100 01010KT P6SM SCT250
     FM221500 02010G15KT P6SM FEW250=

USA.gov is the U.S. government's official web portal to all federal, state and local government web resources and services.